createdAt,value
2019-04-06T00:01:17.416Z,8.25
2019-04-06T00:03:45.128Z,8.25
2019-04-06T00:06:12.729Z,8.26
2019-04-06T00:08:40.806Z,8.26
2019-04-06T00:11:11.575Z,8.25
2019-04-06T00:13:39.261Z,8.25
2019-04-06T00:16:06.909Z,8.25
2019-04-06T00:18:34.595Z,8.25
2019-04-06T00:21:02.220Z,8.25
2019-04-06T00:23:29.937Z,8.24
2019-04-06T00:25:57.579Z,8.24
2019-04-06T00:28:25.256Z,8.23
2019-04-06T00:31:18.091Z,8.23
2019-04-06T00:33:46.184Z,8.24
2019-04-06T00:36:16.784Z,8.23
2019-04-06T00:38:44.455Z,8.25
2019-04-06T00:41:13.825Z,8.25
2019-04-06T00:43:44.127Z,8.25
2019-04-06T00:46:11.846Z,8.25
2019-04-06T00:48:39.958Z,8.25
2019-04-06T00:51:07.748Z,8.26
2019-04-06T00:53:35.429Z,8.25
2019-04-06T00:56:03.537Z,8.26
2019-04-06T00:58:31.184Z,8.28
2019-04-06T01:00:58.797Z,8.28
2019-04-06T01:03:26.482Z,8.29
2019-04-06T01:05:54.391Z,8.29
2019-04-06T01:08:22.123Z,8.31
2019-04-06T01:10:49.794Z,8.31
2019-04-06T01:13:17.477Z,8.31
2019-04-06T01:15:45.633Z,8.32
2019-04-06T01:18:13.247Z,8.32
2019-04-06T01:20:41.102Z,8.33
2019-04-06T01:23:09.090Z,8.34
2019-04-06T01:25:37.117Z,8.34
2019-04-06T01:28:04.761Z,8.33
2019-04-06T01:30:34.348Z,8.33
2019-04-06T01:33:02.036Z,8.34
2019-04-06T01:35:30.121Z,8.34
2019-04-06T01:37:57.840Z,8.34
2019-04-06T01:40:25.441Z,8.34
2019-04-06T01:42:53.918Z,8.34
2019-04-06T01:45:21.559Z,8.34
2019-04-06T01:47:49.250Z,8.35
2019-04-06T01:50:17.390Z,8.35
2019-04-06T01:52:45.074Z,8.36
2019-04-06T01:55:12.773Z,8.37
2019-04-06T01:57:40.406Z,8.37
2019-04-06T02:00:10.580Z,8.37
2019-04-06T02:02:39.794Z,8.38
2019-04-06T02:05:07.474Z,8.38
2019-04-06T02:07:35.108Z,8.38
2019-04-06T02:10:03.099Z,8.38
2019-04-06T02:12:30.767Z,8.38
2019-04-06T02:14:58.422Z,8.39
2019-04-06T02:17:26.069Z,8.37
2019-04-06T02:19:53.767Z,8.37
2019-04-06T02:22:21.400Z,8.37
2019-04-06T02:24:50.604Z,8.38
2019-04-06T02:27:18.319Z,8.38
2019-04-06T02:29:45.984Z,8.38
2019-04-06T02:32:41.870Z,8.39
2019-04-06T02:35:43.477Z,8.41
2019-04-06T02:38:18.050Z,8.41
2019-04-06T02:41:10.391Z,8.40
2019-04-06T02:43:38.351Z,8.40
2019-04-06T02:46:06.450Z,8.41
2019-04-06T02:48:34.059Z,8.40
2019-04-06T02:51:01.778Z,8.38
2019-04-06T02:53:29.932Z,8.39
2019-04-06T02:55:58.161Z,8.39
2019-04-06T02:58:25.914Z,8.40
2019-04-06T03:00:53.513Z,8.40
2019-04-06T03:03:21.571Z,8.40
2019-04-06T03:05:49.555Z,8.40
2019-04-06T03:08:17.301Z,8.40
2019-04-06T03:10:46.774Z,8.41
2019-04-06T03:13:14.461Z,8.40
2019-04-06T03:15:42.371Z,8.40
2019-04-06T03:18:10.085Z,8.41
2019-04-06T03:20:37.774Z,8.41
2019-04-06T03:23:05.483Z,8.40
2019-04-06T03:25:33.761Z,8.40
2019-04-06T03:28:01.403Z,8.40
2019-04-06T03:30:29.115Z,8.40
2019-04-06T03:32:57.077Z,8.40
2019-04-06T03:35:25.566Z,8.40
2019-04-06T03:37:53.227Z,8.40
2019-04-06T03:40:21.119Z,8.39
2019-04-06T03:42:48.871Z,8.37
2019-04-06T03:45:16.830Z,8.36
2019-04-06T03:47:44.785Z,8.32
2019-04-06T03:50:12.409Z,8.32
2019-04-06T03:52:40.099Z,8.20
2019-04-06T03:55:08.192Z,8.13
2019-04-06T03:57:36.289Z,8.09
2019-04-06T04:00:04.028Z,8.06
2019-04-06T04:02:31.925Z,8.03
2019-04-06T04:04:59.713Z,8.00
2019-04-06T04:07:27.400Z,8.00
2019-04-06T04:09:55.085Z,7.97
2019-04-06T04:12:22.970Z,7.98
2019-04-06T04:14:51.038Z,7.99
2019-04-06T04:17:18.687Z,8.00
2019-04-06T04:19:46.364Z,8.00
2019-04-06T04:22:14.059Z,8.02
2019-04-06T04:24:41.772Z,8.03
2019-04-06T04:27:09.403Z,8.04
2019-04-06T04:29:37.121Z,8.04
2019-04-06T04:32:04.767Z,8.04
2019-04-06T04:34:32.535Z,8.05
2019-04-06T04:37:00.400Z,8.05
2019-04-06T04:39:37.192Z,8.05
2019-04-06T04:42:05.100Z,8.06
2019-04-06T04:44:32.909Z,8.06
2019-04-06T04:47:00.797Z,8.08
2019-04-06T04:49:28.797Z,8.11
2019-04-06T04:51:56.481Z,8.13
2019-04-06T04:54:24.158Z,8.13
2019-04-06T04:56:51.851Z,8.17
2019-04-06T04:59:19.827Z,8.17
2019-04-06T05:01:47.550Z,8.18
2019-04-06T05:04:15.185Z,8.21
2019-04-06T05:06:42.971Z,8.21
2019-04-06T05:09:10.843Z,8.27
2019-04-06T05:11:38.497Z,8.28
2019-04-06T05:14:06.221Z,8.28
2019-04-06T05:16:34.274Z,8.31
2019-04-06T05:19:04.336Z,8.34
2019-04-06T05:21:31.231Z,8.38
2019-04-06T05:23:59.181Z,8.38
2019-04-06T05:26:36.847Z,8.43
2019-04-06T05:28:56.158Z,8.43
2019-04-06T05:31:24.071Z,8.43
2019-04-06T05:33:51.740Z,8.46
2019-04-06T05:36:19.543Z,8.48
2019-04-06T05:38:47.465Z,8.49
2019-04-06T05:41:15.132Z,8.49
2019-04-06T05:43:42.803Z,8.52
2019-04-06T05:46:10.775Z,8.53
2019-04-06T05:48:38.488Z,8.53
2019-04-06T05:51:06.137Z,8.59
2019-04-06T05:53:34.070Z,8.59
2019-04-06T05:56:01.762Z,8.61
2019-04-06T05:58:29.385Z,8.64
2019-04-06T06:00:57.370Z,8.67
2019-04-06T06:03:25.896Z,8.69
2019-04-06T06:05:56.280Z,8.73
2019-04-06T06:08:24.183Z,8.78
2019-04-06T06:10:51.866Z,8.81
2019-04-06T06:13:19.737Z,8.85
2019-04-06T06:15:47.704Z,8.87
2019-04-06T06:18:25.663Z,8.87
2019-04-06T06:20:48.357Z,8.92
2019-04-06T06:23:16.686Z,8.97
2019-04-06T06:25:44.741Z,8.99
2019-04-06T06:28:15.271Z,8.99
2019-04-06T06:30:42.180Z,9.03
2019-04-06T06:33:10.018Z,9.04
2019-04-06T06:35:37.771Z,9.08
2019-04-06T06:38:05.858Z,9.11
2019-04-06T06:40:33.592Z,9.14
2019-04-06T06:43:01.272Z,9.16
2019-04-06T06:45:29.402Z,9.19
2019-04-06T06:47:57.077Z,9.27
2019-04-06T06:50:24.703Z,9.27
2019-04-06T06:52:52.667Z,9.30
2019-04-06T06:55:20.382Z,9.34
2019-04-06T06:57:48.055Z,9.45
2019-04-06T07:00:18.791Z,9.45
2019-04-06T07:02:46.434Z,9.49
2019-04-06T07:05:14.150Z,9.53
2019-04-06T07:07:42.189Z,9.57
2019-04-06T07:10:09.998Z,9.61
2019-04-06T07:12:37.646Z,9.66
2019-04-06T07:15:05.701Z,9.70
2019-04-06T07:17:33.392Z,9.70
2019-04-06T07:20:04.163Z,9.76
2019-04-06T07:22:31.879Z,9.79
2019-04-06T07:25:01.475Z,9.86
2019-04-06T07:27:31.020Z,9.91
2019-04-06T07:30:00.567Z,10.06
2019-04-06T07:32:30.307Z,10.06
2019-04-06T07:34:58.743Z,10.16
2019-04-06T07:37:26.452Z,10.31
2019-04-06T07:39:54.148Z,10.31
2019-04-06T07:42:31.237Z,10.37
2019-04-06T07:45:03.471Z,10.44
2019-04-06T07:47:31.622Z,10.64
2019-04-06T07:50:00.465Z,10.64
2019-04-06T07:52:30.517Z,10.77
2019-04-06T07:54:58.522Z,10.89
2019-04-06T07:57:26.468Z,11.01
2019-04-06T07:59:54.195Z,11.10
2019-04-06T08:02:24.803Z,11.36
2019-04-06T08:04:52.549Z,11.50
2019-04-06T08:07:20.170Z,11.50
2019-04-06T08:09:57.213Z,11.64
2019-04-06T08:12:22.436Z,11.81
2019-04-06T08:14:50.190Z,12.34
2019-04-06T08:17:29.984Z,12.34
2019-04-06T08:19:57.688Z,12.61
2019-04-06T08:22:25.675Z,12.83
2019-04-06T08:24:53.557Z,12.98
2019-04-06T08:27:21.238Z,13.10
2019-04-06T08:29:49.139Z,13.28
2019-04-06T08:32:18.815Z,13.40
2019-04-06T08:34:46.808Z,13.51
2019-04-06T08:37:15.673Z,13.61
2019-04-06T08:39:44.432Z,13.74
2019-04-06T08:42:12.434Z,13.84
2019-04-06T08:44:40.296Z,13.92
2019-04-06T08:47:09.609Z,14.02
2019-04-06T08:49:37.705Z,14.05
2019-04-06T08:52:05.732Z,14.13
2019-04-06T08:54:33.493Z,14.14
2019-04-06T08:57:04.244Z,14.14
2019-04-06T08:59:31.967Z,14.14
2019-04-06T09:01:59.588Z,14.17
2019-04-06T09:04:27.722Z,14.16
2019-04-06T09:06:55.362Z,14.15
2019-04-06T09:09:23.338Z,14.11
2019-04-06T09:11:52.437Z,13.97
2019-04-06T09:14:20.249Z,13.97
2019-04-06T09:16:48.181Z,13.88
2019-04-06T09:19:18.877Z,13.76
2019-04-06T09:21:46.680Z,13.69
2019-04-06T09:24:14.601Z,13.71
2019-04-06T09:26:47.997Z,13.78
2019-04-06T09:29:23.166Z,13.87
2019-04-06T09:31:45.699Z,13.98
2019-04-06T09:34:13.407Z,14.21
2019-04-06T09:36:44.631Z,14.21
2019-04-06T09:39:12.283Z,14.31
2019-04-06T09:41:40.030Z,14.36
2019-04-06T09:44:12.809Z,14.39
2019-04-06T09:46:58.033Z,14.45
2019-04-06T09:49:46.843Z,14.51
2019-04-06T09:52:38.748Z,14.51
2019-04-06T09:55:21.961Z,14.59
2019-04-06T09:58:06.599Z,14.67
2019-04-06T10:00:51.430Z,14.77
2019-04-06T10:03:36.606Z,14.91
2019-04-06T10:06:25.523Z,15.67
2019-04-06T10:09:14.956Z,15.67
2019-04-06T10:12:13.248Z,16.00
2019-04-06T10:14:55.556Z,16.03
2019-04-06T10:17:45.366Z,15.84
2019-04-06T10:20:34.699Z,15.84
2019-04-06T10:23:30.543Z,15.82
2019-04-06T10:26:12.147Z,15.80
2019-04-06T10:28:57.083Z,15.81
2019-04-06T10:31:49.600Z,15.85
2019-04-06T10:34:51.288Z,15.88
2019-04-06T10:37:52.984Z,16.02
2019-04-06T10:40:29.522Z,16.27
2019-04-06T10:43:14.574Z,16.50
2019-04-06T10:45:59.717Z,16.52
2019-04-06T10:48:47.743Z,16.46
2019-04-06T10:51:37.272Z,16.46
2019-04-06T10:54:26.857Z,16.47
2019-04-06T10:57:13.675Z,16.48
2019-04-06T11:00:00.946Z,16.48
2019-04-06T11:02:45.051Z,16.55
2019-04-06T11:05:28.526Z,17.01
2019-04-06T11:08:15.519Z,17.32
2019-04-06T11:11:20.743Z,17.47
2019-04-06T11:14:13.216Z,17.52
2019-04-06T11:17:05.593Z,17.53
2019-04-06T11:19:51.209Z,17.55
2019-04-06T11:22:55.794Z,17.55
2019-04-06T11:25:57.415Z,17.48
2019-04-06T11:28:46.553Z,17.31
2019-04-06T11:31:36.713Z,17.10
2019-04-06T11:34:14.730Z,17.12
2019-04-06T11:37:00.102Z,17.32
2019-04-06T11:39:46.659Z,17.32
2019-04-06T11:42:31.728Z,17.18
2019-04-06T11:45:21.349Z,17.03
2019-04-06T11:48:00.981Z,16.94
2019-04-06T11:50:53.730Z,16.71
2019-04-06T11:53:43.619Z,16.62
2019-04-06T11:56:35.068Z,16.62
2019-04-06T11:59:21.986Z,16.59
2019-04-06T12:02:17.578Z,16.60
2019-04-06T12:05:13.611Z,16.65
2019-04-06T12:08:09.007Z,16.70
2019-04-06T12:11:07.827Z,16.79
2019-04-06T12:14:06.309Z,16.84
2019-04-06T12:16:43.515Z,16.84
2019-04-06T12:19:39.085Z,16.84
2019-04-06T12:22:24.853Z,16.93
2019-04-06T12:25:18.156Z,17.13
2019-04-06T12:27:53.279Z,17.71
2019-04-06T12:30:40.170Z,18.70
2019-04-06T12:33:25.426Z,19.67
2019-04-06T12:36:11.911Z,20.18
2019-04-06T12:38:55.591Z,20.10
2019-04-06T12:41:40.939Z,20.98
2019-04-06T12:44:42.690Z,21.57
2019-04-06T12:47:29.310Z,21.62
2019-04-06T12:50:22.696Z,21.48
2019-04-06T12:53:28.937Z,21.09
2019-04-06T12:56:13.375Z,20.88
2019-04-06T12:58:59.128Z,20.23
2019-04-06T13:01:36.481Z,19.84
2019-04-06T13:04:21.422Z,19.35
2019-04-06T13:07:06.665Z,19.35
2019-04-06T13:09:51.663Z,19.35
2019-04-06T13:12:36.351Z,19.63
2019-04-06T13:15:21.669Z,19.96
2019-04-06T13:18:07.380Z,20.99
2019-04-06T13:20:55.829Z,21.24
2019-04-06T13:23:46.933Z,21.24
2019-04-06T13:26:35.500Z,21.80
2019-04-06T13:29:28.191Z,21.80
2019-04-06T13:32:16.120Z,22.00
2019-04-06T13:35:01.333Z,22.06
2019-04-06T13:37:47.893Z,22.11
2019-04-06T13:40:33.441Z,22.19
2019-04-06T13:43:25.694Z,22.24
2019-04-06T13:46:15.325Z,22.34
2019-04-06T13:49:13.935Z,22.32
2019-04-06T13:51:48.735Z,22.32
2019-04-06T13:54:50.745Z,22.23
2019-04-06T13:57:33.616Z,22.18
2019-04-06T14:00:23.170Z,22.18
2019-04-06T14:03:12.314Z,22.24
2019-04-06T14:05:58.757Z,22.49
2019-04-06T14:08:45.590Z,22.49
2019-04-06T14:11:34.854Z,22.57
2019-04-06T14:14:24.815Z,22.66
2019-04-06T14:17:09.966Z,22.70
2019-04-06T14:20:06.239Z,23.03
2019-04-06T14:22:48.979Z,23.30
2019-04-06T14:25:29.647Z,23.16
2019-04-06T14:28:16.334Z,22.78
2019-04-06T14:31:06.132Z,22.31
2019-04-06T14:34:10.653Z,21.73
2019-04-06T14:36:51.992Z,21.07
2019-04-06T14:39:37.248Z,20.54
2019-04-06T14:42:46.230Z,20.19
2019-04-06T14:45:13.522Z,19.86
2019-04-06T14:48:06.173Z,19.54
2019-04-06T14:50:52.947Z,19.44
2019-04-06T14:53:35.919Z,19.44
2019-04-06T14:56:26.755Z,19.83
2019-04-06T14:59:11.506Z,20.67
2019-04-06T15:02:00.216Z,21.01
2019-04-06T15:04:56.226Z,21.01
2019-04-06T15:07:50.506Z,21.28
2019-04-06T15:10:37.438Z,21.97
2019-04-06T15:13:24.368Z,21.97
2019-04-06T15:16:26.673Z,22.30
2019-04-06T15:19:19.383Z,22.31
2019-04-06T15:22:06.298Z,22.34
2019-04-06T15:24:55.661Z,22.34
2019-04-06T15:27:38.689Z,21.87
2019-04-06T15:30:37.398Z,22.04
2019-04-06T15:33:19.683Z,22.32
2019-04-06T15:36:14.878Z,22.32
2019-04-06T15:38:57.084Z,22.99
2019-04-06T15:41:56.160Z,23.18
2019-04-06T15:44:30.662Z,23.18
2019-04-06T15:47:28.507Z,23.22
2019-04-06T15:50:15.242Z,23.25
2019-04-06T15:53:20.709Z,23.25
2019-04-06T15:56:10.438Z,23.27
2019-04-06T15:59:02.991Z,23.36
2019-04-06T16:02:01.710Z,23.33
2019-04-06T16:04:32.947Z,23.00
2019-04-06T16:07:32.458Z,23.00
2019-04-06T16:10:17.012Z,22.39
2019-04-06T16:13:03.783Z,21.77
2019-04-06T16:15:52.574Z,21.24
2019-04-06T16:18:39.359Z,20.67
2019-04-06T16:21:26.121Z,20.25
2019-04-06T16:24:11.639Z,19.92
2019-04-06T16:26:47.906Z,19.36
2019-04-06T16:29:29.848Z,19.36
2019-04-06T16:32:33.887Z,18.83
2019-04-06T16:35:16.074Z,18.83
2019-04-06T16:37:52.633Z,18.64
2019-04-06T16:40:32.670Z,18.47
2019-04-06T16:43:15.249Z,18.34
2019-04-06T16:46:08.266Z,18.10
2019-04-06T16:48:55.135Z,17.97
2019-04-06T16:51:52.315Z,17.97
2019-04-06T16:54:39.216Z,17.80
2019-04-06T16:57:39.396Z,17.41
2019-04-06T17:00:32.126Z,17.41
2019-04-06T17:03:18.666Z,17.24
2019-04-06T17:06:11.620Z,17.10
2019-04-06T17:09:13.349Z,16.99
2019-04-06T17:12:15.313Z,16.87
2019-04-06T17:15:02.422Z,16.74
2019-04-06T17:17:50.033Z,16.61
2019-04-06T17:20:38.979Z,16.39
2019-04-06T17:23:25.803Z,16.32
2019-04-06T17:26:11.041Z,16.22
2019-04-06T17:29:06.302Z,16.13
2019-04-06T17:31:55.687Z,16.02
2019-04-06T17:34:54.518Z,16.02
2019-04-06T17:37:29.991Z,15.92
2019-04-06T17:40:16.816Z,15.82
2019-04-06T17:43:18.515Z,15.63
2019-04-06T17:46:05.308Z,15.63
2019-04-06T17:48:57.492Z,15.40
2019-04-06T17:51:31.327Z,15.40
2019-04-06T17:54:18.898Z,15.27
2019-04-06T17:57:03.789Z,15.18
2019-04-06T17:59:44.925Z,14.93
2019-04-06T18:02:32.517Z,14.79
2019-04-06T18:05:16.964Z,14.79
2019-04-06T18:08:06.776Z,14.65
2019-04-06T18:10:54.672Z,14.40
2019-04-06T18:13:43.609Z,14.40
2019-04-06T18:16:12.741Z,14.26
2019-04-06T18:18:40.748Z,14.15
2019-04-06T18:21:11.856Z,14.03
2019-04-06T18:23:39.607Z,13.95
2019-04-06T18:26:10.074Z,13.85
2019-04-06T18:28:37.728Z,13.68
2019-04-06T18:31:24.767Z,13.68
2019-04-06T18:33:58.044Z,13.49
2019-04-06T18:36:30.960Z,13.49
2019-04-06T18:39:06.036Z,13.30
2019-04-06T18:41:43.220Z,13.30
2019-04-06T18:44:11.217Z,13.14
2019-04-06T18:46:41.923Z,13.14
2019-04-06T18:49:12.478Z,13.08
2019-04-06T18:51:40.215Z,13.02
2019-04-06T18:54:09.429Z,12.95
2019-04-06T18:56:37.504Z,12.86
2019-04-06T18:59:05.289Z,12.86
2019-04-06T19:01:33.644Z,12.82
2019-04-06T19:04:01.407Z,12.78
2019-04-06T19:06:32.146Z,12.71
2019-04-06T19:09:05.288Z,12.71
2019-04-06T19:11:30.172Z,12.70
2019-04-06T19:13:58.108Z,12.66
2019-04-06T19:16:26.156Z,12.66
2019-04-06T19:18:54.637Z,12.61
2019-04-06T19:21:22.984Z,12.51
2019-04-06T19:23:50.697Z,12.46
2019-04-06T19:26:18.806Z,12.46
2019-04-06T19:28:46.974Z,12.39
2019-04-06T19:31:15.084Z,12.39
2019-04-06T19:33:43.146Z,12.36
2019-04-06T19:36:11.283Z,12.19
2019-04-06T19:38:41.413Z,12.19
2019-04-06T19:41:12.436Z,12.02
2019-04-06T19:43:40.382Z,11.94
2019-04-06T19:46:08.096Z,11.86
2019-04-06T19:48:40.511Z,11.86
2019-04-06T19:51:08.708Z,11.78
2019-04-06T19:53:37.957Z,11.68
2019-04-06T19:56:05.666Z,11.59
2019-04-06T19:58:37.075Z,11.43
2019-04-06T20:01:04.766Z,11.43
2019-04-06T20:03:35.971Z,11.40
2019-04-06T20:06:02.004Z,11.41
2019-04-06T20:08:29.762Z,11.41
2019-04-06T20:11:11.114Z,11.44
2019-04-06T20:13:39.076Z,11.49
2019-04-06T20:16:09.034Z,11.51
2019-04-06T20:18:36.809Z,11.54
2019-04-06T20:21:06.444Z,11.53
2019-04-06T20:23:34.526Z,11.54
2019-04-06T20:26:02.719Z,11.54
2019-04-06T20:28:31.388Z,11.54
2019-04-06T20:30:59.052Z,11.55
2019-04-06T20:33:26.784Z,11.54
2019-04-06T20:35:54.716Z,11.52
2019-04-06T20:38:22.938Z,11.49
2019-04-06T20:40:50.543Z,11.45
2019-04-06T20:43:18.584Z,11.42
2019-04-06T20:45:46.570Z,11.42
2019-04-06T20:48:14.970Z,11.38
2019-04-06T20:50:46.074Z,11.36
2019-04-06T20:53:16.323Z,11.29
2019-04-06T20:55:43.965Z,11.25
2019-04-06T20:58:12.189Z,11.25
2019-04-06T21:00:42.732Z,11.13
2019-04-06T21:03:12.505Z,11.13
2019-04-06T21:05:41.389Z,11.03
2019-04-06T21:08:09.969Z,10.96
2019-04-06T21:10:37.581Z,10.82
2019-04-06T21:13:08.316Z,10.78
2019-04-06T21:15:36.225Z,10.74
2019-04-06T21:18:04.386Z,10.70
2019-04-06T21:20:36.881Z,10.64
2019-04-06T21:23:06.623Z,10.64
2019-04-06T21:25:34.418Z,10.60
2019-04-06T21:28:02.631Z,10.53
2019-04-06T21:30:31.312Z,10.53
2019-04-06T21:32:59.000Z,10.50
2019-04-06T21:35:26.945Z,10.50
2019-04-06T21:37:54.758Z,10.51
2019-04-06T21:40:22.496Z,10.53
2019-04-06T21:42:51.147Z,10.53
2019-04-06T21:45:19.677Z,10.53
2019-04-06T21:47:47.800Z,10.53
2019-04-06T21:50:18.660Z,10.44
2019-04-06T21:52:49.553Z,10.38
2019-04-06T21:55:17.835Z,10.38
2019-04-06T21:57:45.842Z,10.33
2019-04-06T22:00:15.838Z,10.32
2019-04-06T22:02:43.718Z,10.31
2019-04-06T22:05:13.785Z,10.29
2019-04-06T22:07:48.068Z,10.26
2019-04-06T22:10:11.745Z,10.26
2019-04-06T22:12:39.996Z,10.27
2019-04-06T22:15:08.479Z,10.31
2019-04-06T22:17:36.641Z,10.31
2019-04-06T22:20:04.638Z,10.34
2019-04-06T22:22:32.622Z,10.38
2019-04-06T22:25:00.811Z,10.43
2019-04-06T22:27:28.972Z,10.47
2019-04-06T22:29:56.716Z,10.47
2019-04-06T22:32:24.703Z,10.53
2019-04-06T22:34:56.707Z,10.65
2019-04-06T22:37:27.182Z,10.72
2019-04-06T22:39:55.062Z,10.72
2019-04-06T22:42:22.738Z,10.81
2019-04-06T22:44:50.972Z,10.81
2019-04-06T22:47:22.096Z,10.87
2019-04-06T22:49:54.615Z,10.86
2019-04-06T22:52:22.321Z,10.86
2019-04-06T22:54:50.327Z,10.85
2019-04-06T22:57:21.230Z,10.85
2019-04-06T22:59:50.762Z,10.79
2019-04-06T23:02:21.539Z,10.79
2019-04-06T23:05:08.495Z,10.78
2019-04-06T23:07:39.278Z,10.77
2019-04-06T23:10:11.092Z,10.70
2019-04-06T23:12:45.150Z,10.69
2019-04-06T23:15:13.123Z,10.69
2019-04-06T23:17:40.840Z,10.67
2019-04-06T23:20:10.532Z,10.67
2019-04-06T23:22:38.486Z,10.65
2019-04-06T23:25:06.430Z,10.63
2019-04-06T23:27:34.060Z,10.63
2019-04-06T23:30:02.171Z,10.63
2019-04-06T23:32:29.798Z,10.64
2019-04-06T23:35:01.572Z,10.66
2019-04-06T23:37:27.131Z,10.66
2019-04-06T23:39:54.984Z,10.66
2019-04-06T23:42:22.758Z,10.67
2019-04-06T23:44:51.540Z,10.71
2019-04-06T23:47:19.158Z,10.73
2019-04-06T23:49:46.873Z,10.74
2019-04-06T23:52:15.356Z,10.74
2019-04-06T23:54:42.984Z,10.74
2019-04-06T23:57:10.652Z,10.76
2019-04-06T23:59:38.688Z,10.75
